createdAt,value
2019-03-22T00:01:19.980Z,65.10
2019-03-22T00:03:52.260Z,65.44
2019-03-22T00:06:24.493Z,65.73
2019-03-22T00:08:57.956Z,66.03
2019-03-22T00:11:30.707Z,66.07
2019-03-22T00:14:03.057Z,65.74
2019-03-22T00:16:35.107Z,67.05
2019-03-22T00:19:07.444Z,66.91
2019-03-22T00:21:39.644Z,68.31
2019-03-22T00:24:11.749Z,68.51
2019-03-22T00:26:43.998Z,69.81
2019-03-22T00:29:17.310Z,71.57
2019-03-22T00:31:50.584Z,74.25
2019-03-22T00:34:24.327Z,74.68
2019-03-22T00:36:57.578Z,75.89
2019-03-22T00:39:29.763Z,79.04
2019-03-22T00:42:03.082Z,79.57
2019-03-22T00:44:35.332Z,81.16
2019-03-22T00:47:07.551Z,83.24
2019-03-22T00:49:39.867Z,84.06
2019-03-22T00:52:13.917Z,85.90
2019-03-22T00:54:48.596Z,87.04
2019-03-22T00:57:28.406Z,88.44
2019-03-22T00:59:54.578Z,91.15
2019-03-22T01:02:26.765Z,92.78
2019-03-22T01:04:59.195Z,95.98
2019-03-22T01:07:31.403Z,96.31
2019-03-22T01:10:05.215Z,97.56
2019-03-22T01:12:40.568Z,100.00
2019-03-22T01:15:15.232Z,100.00
2019-03-22T01:17:47.464Z,100.00
2019-03-22T01:20:19.615Z,100.00
2019-03-22T01:22:51.863Z,100.00
2019-03-22T01:25:25.052Z,100.00
2019-03-22T01:27:58.867Z,100.00
2019-03-22T01:30:31.106Z,100.00
2019-03-22T01:33:05.905Z,100.00
2019-03-22T01:35:37.987Z,100.00
2019-03-22T01:38:10.161Z,100.00
2019-03-22T01:40:42.354Z,100.00
2019-03-22T01:43:15.883Z,100.00
2019-03-22T01:45:48.084Z,100.00
2019-03-22T01:48:20.319Z,100.00
2019-03-22T01:50:52.516Z,100.00
2019-03-22T01:53:24.700Z,100.00
2019-03-22T01:55:57.001Z,100.00
2019-03-22T01:58:29.200Z,100.00
2019-03-22T02:01:01.352Z,100.00
2019-03-22T02:03:33.620Z,100.00
2019-03-22T02:06:05.739Z,100.00
2019-03-22T02:08:38.041Z,100.00
2019-03-22T02:11:10.178Z,100.00
2019-03-22T02:13:42.456Z,100.00
2019-03-22T02:16:14.691Z,100.00
2019-03-22T02:18:46.746Z,100.00
2019-03-22T02:21:18.980Z,100.00
2019-03-22T02:23:52.315Z,100.00
2019-03-22T02:26:25.386Z,100.00
2019-03-22T02:28:57.766Z,100.00
2019-03-22T02:31:30.078Z,100.00
2019-03-22T02:34:02.306Z,100.00
2019-03-22T02:36:34.379Z,100.00
2019-03-22T02:39:07.931Z,100.00
2019-03-22T02:41:40.038Z,100.00
2019-03-22T02:44:12.223Z,100.00
2019-03-22T02:46:44.455Z,100.00
2019-03-22T02:49:16.657Z,100.00
2019-03-22T02:51:48.805Z,100.00
2019-03-22T02:54:21.102Z,100.00
2019-03-22T02:56:53.280Z,100.00
2019-03-22T02:59:25.377Z,100.00
2019-03-22T03:01:57.676Z,100.00
2019-03-22T03:04:30.048Z,100.00
2019-03-22T03:07:02.283Z,100.00
2019-03-22T03:09:34.568Z,100.00
2019-03-22T03:12:06.873Z,100.00
2019-03-22T03:14:39.028Z,100.00
2019-03-22T03:17:11.300Z,100.00
2019-03-22T03:19:43.578Z,100.00
2019-03-22T03:22:16.779Z,100.00
2019-03-22T03:24:49.062Z,100.00
2019-03-22T03:27:21.255Z,100.00
2019-03-22T03:29:55.285Z,100.00
2019-03-22T03:32:27.550Z,100.00
2019-03-22T03:35:01.185Z,100.00
2019-03-22T03:37:33.445Z,100.00
2019-03-22T03:40:06.232Z,100.00
2019-03-22T03:42:40.535Z,100.00
2019-03-22T03:45:36.216Z,100.00
2019-03-22T03:48:10.531Z,100.00
2019-03-22T03:50:46.746Z,100.00
2019-03-22T03:53:18.910Z,100.00
2019-03-22T03:55:53.850Z,100.00
2019-03-22T03:58:28.097Z,100.00
2019-03-22T04:01:00.328Z,100.00
2019-03-22T04:03:32.566Z,100.00
2019-03-22T04:06:07.198Z,100.00
2019-03-22T04:08:40.191Z,100.00
2019-03-22T04:11:12.528Z,100.00
2019-03-22T04:13:47.655Z,100.00
2019-03-22T04:16:23.229Z,100.00
2019-03-22T04:18:55.785Z,100.00
2019-03-22T04:21:28.225Z,100.00
2019-03-22T04:24:00.570Z,100.00
2019-03-22T04:26:32.848Z,100.00
2019-03-22T04:29:07.673Z,100.00
2019-03-22T04:31:39.099Z,100.00
2019-03-22T04:34:11.387Z,100.00
2019-03-22T04:36:43.770Z,100.00
2019-03-22T04:39:16.155Z,100.00
2019-03-22T04:41:48.709Z,100.00
2019-03-22T04:44:21.024Z,100.00
2019-03-22T04:46:55.061Z,100.00
2019-03-22T04:49:29.552Z,100.00
2019-03-22T04:52:02.019Z,100.00
2019-03-22T04:54:37.221Z,100.00
2019-03-22T04:57:12.173Z,100.00
2019-03-22T04:59:47.060Z,100.00
2019-03-22T05:02:19.971Z,100.00
2019-03-22T05:04:52.513Z,100.00
2019-03-22T05:07:26.410Z,100.00
2019-03-22T05:09:58.825Z,100.00
2019-03-22T05:12:35.801Z,100.00
2019-03-22T05:15:10.404Z,100.00
2019-03-22T05:17:43.846Z,100.00
2019-03-22T05:20:18.985Z,100.00
2019-03-22T05:22:52.242Z,100.00
2019-03-22T05:25:26.594Z,100.00
2019-03-22T05:28:00.938Z,100.00
2019-03-22T05:31:11.277Z,100.00
2019-03-22T05:33:43.614Z,100.00
2019-03-22T05:36:17.373Z,100.00
2019-03-22T05:38:52.262Z,100.00
2019-03-22T05:41:24.601Z,100.00
2019-03-22T05:43:59.793Z,100.00
2019-03-22T05:46:32.100Z,100.00
2019-03-22T05:49:04.307Z,100.00
2019-03-22T05:51:36.555Z,100.00
2019-03-22T05:54:11.854Z,100.00
2019-03-22T05:56:44.225Z,100.00
2019-03-22T05:59:16.475Z,100.00
2019-03-22T06:01:48.817Z,100.00
2019-03-22T06:04:21.223Z,100.00
2019-03-22T06:06:53.604Z,100.00
2019-03-22T06:09:25.961Z,100.00
2019-03-22T06:11:58.340Z,100.00
2019-03-22T06:14:30.661Z,100.00
2019-03-22T06:17:05.937Z,100.00
2019-03-22T06:19:38.189Z,100.00
2019-03-22T06:22:10.472Z,100.00
2019-03-22T06:24:42.844Z,100.00
2019-03-22T06:27:15.026Z,100.00
2019-03-22T06:29:54.503Z,100.00
2019-03-22T06:32:24.234Z,100.00
2019-03-22T06:34:56.525Z,100.00
2019-03-22T06:37:28.828Z,100.00
2019-03-22T06:40:01.253Z,100.00
2019-03-22T06:42:33.699Z,100.00
2019-03-22T06:45:06.095Z,100.00
2019-03-22T06:47:39.499Z,100.00
2019-03-22T06:50:12.102Z,100.00
2019-03-22T06:52:46.087Z,100.00
2019-03-22T06:55:18.518Z,100.00
2019-03-22T06:57:52.535Z,100.00
2019-03-22T07:00:28.942Z,100.00
2019-03-22T07:03:01.170Z,100.00
2019-03-22T07:05:33.436Z,99.48
2019-03-22T07:08:05.757Z,97.99
2019-03-22T07:10:38.116Z,96.88
2019-03-22T07:13:10.442Z,94.78
2019-03-22T07:15:42.690Z,98.26
2019-03-22T07:18:15.019Z,95.51
2019-03-22T07:20:47.137Z,92.71
2019-03-22T07:23:19.950Z,90.07
2019-03-22T07:25:52.891Z,90.54
2019-03-22T07:28:25.135Z,90.28
2019-03-22T07:30:57.261Z,86.75
2019-03-22T07:33:29.589Z,81.55
2019-03-22T07:36:01.957Z,76.06
2019-03-22T07:38:34.303Z,76.06
2019-03-22T07:41:06.676Z,78.38
2019-03-22T07:43:38.973Z,79.03
2019-03-22T07:46:11.420Z,79.36
2019-03-22T07:48:43.713Z,79.66
2019-03-22T07:51:16.442Z,76.73
2019-03-22T07:53:48.704Z,73.64
2019-03-22T07:56:21.010Z,69.80
2019-03-22T07:58:54.285Z,69.58
2019-03-22T08:01:28.128Z,69.91
2019-03-22T08:04:00.653Z,67.24
2019-03-22T08:06:33.036Z,64.72
2019-03-22T08:09:08.216Z,65.06
2019-03-22T08:11:40.860Z,63.53
2019-03-22T08:14:16.536Z,64.97
2019-03-22T08:16:49.335Z,58.30
2019-03-22T08:19:23.226Z,54.26
2019-03-22T08:21:55.663Z,56.63
2019-03-22T08:24:28.263Z,55.71
2019-03-22T08:27:00.831Z,56.58
2019-03-22T08:29:33.267Z,55.53
2019-03-22T08:32:06.322Z,56.22
2019-03-22T08:34:39.641Z,56.74
2019-03-22T08:37:12.018Z,55.11
2019-03-22T08:39:44.434Z,54.26
2019-03-22T08:42:17.752Z,53.37
2019-03-22T08:44:50.383Z,55.35
2019-03-22T08:47:33.102Z,53.27
2019-03-22T08:49:57.146Z,52.23
2019-03-22T08:52:29.637Z,50.53
2019-03-22T08:55:02.122Z,49.08
2019-03-22T08:57:34.722Z,48.12
2019-03-22T09:00:09.920Z,47.11
2019-03-22T09:02:45.400Z,45.07
2019-03-22T09:05:17.830Z,47.23
2019-03-22T09:07:51.563Z,44.84
2019-03-22T09:10:24.010Z,45.50
2019-03-22T09:12:58.975Z,44.97
2019-03-22T09:15:40.975Z,44.58
2019-03-22T09:18:06.884Z,45.26
2019-03-22T09:20:39.510Z,44.82
2019-03-22T09:23:12.062Z,44.36
2019-03-22T09:25:44.567Z,45.80
2019-03-22T09:28:17.082Z,44.77
2019-03-22T09:30:49.653Z,44.81
2019-03-22T09:33:21.947Z,43.71
2019-03-22T09:35:54.289Z,45.29
2019-03-22T09:38:28.597Z,44.84
2019-03-22T09:41:00.943Z,44.45
2019-03-22T09:43:33.545Z,44.51
2019-03-22T09:46:05.989Z,45.60
2019-03-22T09:48:42.020Z,45.69
2019-03-22T09:51:15.813Z,45.26
2019-03-22T09:53:48.688Z,44.45
2019-03-22T09:56:21.104Z,43.57
2019-03-22T09:58:53.776Z,44.69
2019-03-22T10:01:26.326Z,43.79
2019-03-22T10:03:59.313Z,41.82
2019-03-22T10:06:31.700Z,42.42
2019-03-22T10:09:05.473Z,43.16
2019-03-22T10:11:38.380Z,43.25
2019-03-22T10:14:11.032Z,41.67
2019-03-22T10:16:43.571Z,41.29
2019-03-22T10:19:19.173Z,41.29
2019-03-22T10:21:51.715Z,43.31
2019-03-22T10:24:26.761Z,40.12
2019-03-22T10:27:00.678Z,41.95
2019-03-22T10:29:33.318Z,40.61
2019-03-22T10:32:07.799Z,39.97
2019-03-22T10:34:40.500Z,40.23
2019-03-22T10:37:12.917Z,39.19
2019-03-22T10:39:48.052Z,39.62
2019-03-22T10:42:20.528Z,39.85
2019-03-22T10:44:53.310Z,39.78
2019-03-22T10:47:27.886Z,39.48
2019-03-22T10:50:00.553Z,39.74
2019-03-22T10:52:33.018Z,40.03
2019-03-22T10:55:23.425Z,39.83
2019-03-22T10:57:40.389Z,40.21
2019-03-22T11:00:17.952Z,42.20
2019-03-22T11:02:50.791Z,43.34
2019-03-22T11:05:23.263Z,41.23
2019-03-22T11:07:55.608Z,42.13
2019-03-22T11:10:28.034Z,40.67
2019-03-22T11:13:02.408Z,41.44
2019-03-22T11:15:35.718Z,43.26
2019-03-22T11:18:08.295Z,44.05
2019-03-22T11:20:40.703Z,43.53
2019-03-22T11:23:13.151Z,42.26
2019-03-22T11:25:45.689Z,43.29
2019-03-22T11:28:19.450Z,42.17
2019-03-22T11:30:53.022Z,41.72
2019-03-22T11:33:25.328Z,41.57
2019-03-22T11:35:58.340Z,41.23
2019-03-22T11:38:30.568Z,40.85
2019-03-22T11:41:02.819Z,39.40
2019-03-22T11:43:35.168Z,39.65
2019-03-22T11:46:07.474Z,39.05
2019-03-22T11:48:39.854Z,39.46
2019-03-22T11:51:12.156Z,41.05
2019-03-22T11:53:44.435Z,40.46
2019-03-22T11:56:20.290Z,41.89
2019-03-22T11:58:54.521Z,42.34
2019-03-22T12:01:25.731Z,42.74
2019-03-22T12:03:58.157Z,41.10
2019-03-22T12:06:30.586Z,41.16
2019-03-22T12:09:04.344Z,40.32
2019-03-22T12:11:38.939Z,41.06
2019-03-22T12:14:11.431Z,40.24
2019-03-22T12:16:43.766Z,40.56
2019-03-22T12:21:50.456Z,40.06
2019-03-22T12:24:23.996Z,40.75
2019-03-22T12:26:56.318Z,42.53
2019-03-22T12:29:28.843Z,41.99
2019-03-22T12:32:02.282Z,42.89
2019-03-22T12:34:34.733Z,41.64
2019-03-22T12:37:07.046Z,42.74
2019-03-22T12:39:41.730Z,44.52
2019-03-22T12:42:13.688Z,44.18
2019-03-22T12:44:46.212Z,43.35
2019-03-22T12:47:18.533Z,43.57
2019-03-22T12:49:52.915Z,43.41
2019-03-22T12:52:25.888Z,44.95
2019-03-22T12:54:58.098Z,44.40
2019-03-22T12:57:30.392Z,46.67
2019-03-22T13:00:05.869Z,45.72
2019-03-22T13:02:42.471Z,46.26
2019-03-22T13:05:17.401Z,47.36
2019-03-22T13:07:50.689Z,49.41
2019-03-22T13:10:26.240Z,49.04
2019-03-22T13:13:00.855Z,50.54
2019-03-22T13:15:34.931Z,51.66
2019-03-22T13:18:07.495Z,52.55
2019-03-22T13:20:40.354Z,54.25
2019-03-22T13:23:14.045Z,56.14
2019-03-22T13:25:48.063Z,57.49
2019-03-22T13:28:20.909Z,56.80
2019-03-22T13:30:54.293Z,57.22
2019-03-22T13:36:28.124Z,57.65
2019-03-22T13:39:00.405Z,55.93
2019-03-22T13:41:34.341Z,54.64
2019-03-22T13:44:07.923Z,54.98
2019-03-22T13:46:41.889Z,54.20
2019-03-22T13:49:14.340Z,53.50
2019-03-22T13:51:48.520Z,54.75
2019-03-22T13:54:20.763Z,54.01
2019-03-22T13:56:53.946Z,52.89
2019-03-22T13:59:26.449Z,52.68
2019-03-22T14:01:58.749Z,52.71
2019-03-22T14:04:31.840Z,52.71
2019-03-22T14:07:06.517Z,52.33
2019-03-22T14:09:38.778Z,52.66
2019-03-22T14:12:13.356Z,52.80
2019-03-22T14:14:45.771Z,52.43
2019-03-22T14:17:23.840Z,52.54
2019-03-22T14:19:56.362Z,51.14
2019-03-22T14:22:30.508Z,51.29
2019-03-22T14:25:03.331Z,50.97
2019-03-22T14:27:35.617Z,51.07
2019-03-22T14:30:09.916Z,50.88
2019-03-22T14:32:42.203Z,50.87
2019-03-22T14:35:16.903Z,50.55
2019-03-22T14:37:49.276Z,50.29
2019-03-22T14:40:21.543Z,51.48
2019-03-22T14:42:54.068Z,51.23
2019-03-22T14:45:26.469Z,51.30
2019-03-22T14:47:58.805Z,52.08
2019-03-22T14:50:31.297Z,51.15
2019-03-22T14:53:03.721Z,50.71
2019-03-22T14:55:36.210Z,50.71
2019-03-22T14:58:09.394Z,50.67
2019-03-22T15:00:41.979Z,50.90
2019-03-22T15:03:38.987Z,50.90
2019-03-22T15:06:11.967Z,51.87
2019-03-22T15:08:44.338Z,52.24
2019-03-22T15:11:16.656Z,51.92
2019-03-22T15:14:07.623Z,51.44
2019-03-22T15:16:53.820Z,50.90
2019-03-22T15:19:53.686Z,50.46
2019-03-22T15:22:43.229Z,50.83
2019-03-22T15:25:37.577Z,51.28
2019-03-22T15:28:28.252Z,51.72
2019-03-22T15:31:22.120Z,52.42
2019-03-22T15:34:16.271Z,52.42
2019-03-22T15:37:15.452Z,52.25
2019-03-22T15:40:16.280Z,52.39
2019-03-22T15:42:48.888Z,52.42
2019-03-22T15:45:23.033Z,51.77
2019-03-22T15:47:55.911Z,52.18
2019-03-22T15:50:28.374Z,52.18
2019-03-22T15:53:02.168Z,52.92
2019-03-22T15:55:36.898Z,52.84
2019-03-22T15:58:09.445Z,52.84
2019-03-22T16:00:43.325Z,53.26
2019-03-22T16:03:16.030Z,53.57
2019-03-22T16:05:50.697Z,53.57
2019-03-22T16:08:28.368Z,54.96
2019-03-22T16:11:01.599Z,54.81
2019-03-22T16:13:48.917Z,53.78
2019-03-22T16:16:21.475Z,53.32
2019-03-22T16:18:57.656Z,53.37
2019-03-22T16:21:32.694Z,54.12
2019-03-22T16:24:05.729Z,54.12
2019-03-22T16:26:38.136Z,53.34
2019-03-22T16:29:10.517Z,54.10
2019-03-22T16:31:43.181Z,55.30
2019-03-22T16:34:21.155Z,53.60
2019-03-22T16:36:53.654Z,53.60
2019-03-22T16:39:26.150Z,52.60
2019-03-22T16:41:58.787Z,52.82
2019-03-22T16:44:31.166Z,52.82
2019-03-22T16:47:03.580Z,52.00
2019-03-22T16:49:35.898Z,52.67
2019-03-22T16:52:08.115Z,53.12
2019-03-22T16:54:40.511Z,53.87
2019-03-22T16:57:12.947Z,53.59
2019-03-22T16:59:45.320Z,54.43
2019-03-22T17:02:17.847Z,54.26
2019-03-22T17:04:50.375Z,53.49
2019-03-22T17:07:22.656Z,53.42
2019-03-22T17:09:56.650Z,53.58
2019-03-22T17:12:29.178Z,53.92
2019-03-22T17:15:02.888Z,53.84
2019-03-22T17:17:35.354Z,54.52
2019-03-22T17:20:08.894Z,53.44
2019-03-22T17:22:41.320Z,53.75
2019-03-22T17:25:13.747Z,54.71
2019-03-22T17:27:47.241Z,53.97
2019-03-22T17:30:19.956Z,54.10
2019-03-22T17:32:52.457Z,53.78
2019-03-22T17:35:24.939Z,54.12
2019-03-22T17:37:58.983Z,54.22
2019-03-22T17:40:33.070Z,54.10
2019-03-22T17:43:05.524Z,53.98
2019-03-22T17:45:38.009Z,53.98
2019-03-22T17:48:11.384Z,54.11
2019-03-22T17:50:46.399Z,54.80
2019-03-22T17:53:20.417Z,54.92
2019-03-22T17:55:52.825Z,55.42
2019-03-22T17:58:25.351Z,55.57
2019-03-22T18:01:01.482Z,55.65
2019-03-22T18:03:34.110Z,55.52
2019-03-22T18:06:06.626Z,56.03
2019-03-22T18:08:40.361Z,55.73
2019-03-22T18:11:12.727Z,56.19
2019-03-22T18:13:45.115Z,56.04
2019-03-22T18:16:17.529Z,55.40
2019-03-22T18:18:51.010Z,55.17
2019-03-22T18:21:23.438Z,54.86
2019-03-22T18:23:55.920Z,54.93
2019-03-22T18:26:28.394Z,54.68
2019-03-22T18:29:00.838Z,54.61
2019-03-22T18:31:33.312Z,54.65
2019-03-22T18:34:05.662Z,55.22
2019-03-22T18:39:10.421Z,56.58
2019-03-22T18:41:43.863Z,56.75
2019-03-22T18:44:16.261Z,56.42
2019-03-22T18:46:48.681Z,56.28
2019-03-22T18:49:20.972Z,56.17
2019-03-22T18:51:53.257Z,56.18
2019-03-22T18:54:25.682Z,56.01
2019-03-22T18:56:58.218Z,56.10
2019-03-22T18:59:30.526Z,56.29
2019-03-22T19:02:02.986Z,56.36
2019-03-22T19:04:43.838Z,56.61
2019-03-22T19:07:09.438Z,56.58
2019-03-22T19:09:41.784Z,56.67
2019-03-22T19:12:14.177Z,56.31
2019-03-22T19:14:46.381Z,56.30
2019-03-22T19:17:24.788Z,56.72
2019-03-22T19:19:57.026Z,57.18
2019-03-22T19:22:29.445Z,57.69
2019-03-22T19:25:01.746Z,58.17
2019-03-22T19:27:34.335Z,58.81
2019-03-22T19:30:07.650Z,59.70
2019-03-22T19:33:16.942Z,60.50
2019-03-22T19:36:15.238Z,60.82
2019-03-22T19:38:49.094Z,61.69
2019-03-22T19:41:21.436Z,61.94
2019-03-22T19:43:53.803Z,62.27
2019-03-22T19:46:26.123Z,61.93
2019-03-22T19:48:58.470Z,62.21
2019-03-22T19:51:30.943Z,62.91
2019-03-22T19:54:03.430Z,63.65
2019-03-22T19:56:36.001Z,64.08
2019-03-22T19:59:08.380Z,63.94
2019-03-22T20:01:40.838Z,64.26
2019-03-22T20:04:13.869Z,64.91
2019-03-22T20:06:46.364Z,65.65
2019-03-22T20:09:18.746Z,66.87
2019-03-22T20:11:51.231Z,67.17
2019-03-22T20:14:30.718Z,67.92
2019-03-22T20:17:05.864Z,69.21
2019-03-22T20:19:38.171Z,70.41
2019-03-22T20:22:10.517Z,71.06
2019-03-22T20:24:42.894Z,72.33
2019-03-22T20:27:15.187Z,73.10
2019-03-22T20:29:47.645Z,73.70
2019-03-22T20:32:20.116Z,73.51
2019-03-22T20:34:52.426Z,74.39
2019-03-22T20:37:24.826Z,73.91
2019-03-22T20:39:58.261Z,73.59
2019-03-22T20:42:30.610Z,73.67
2019-03-22T20:45:03.167Z,73.54
2019-03-22T20:47:35.524Z,75.27
2019-03-22T20:50:07.967Z,75.64
2019-03-22T20:52:40.315Z,75.19
2019-03-22T20:55:12.591Z,75.68
2019-03-22T20:57:46.746Z,75.54
2019-03-22T21:00:19.543Z,75.79
2019-03-22T21:02:51.997Z,76.81
2019-03-22T21:05:27.208Z,77.18
2019-03-22T21:07:58.922Z,77.25
2019-03-22T21:10:31.298Z,77.31
2019-03-22T21:13:04.485Z,77.26
2019-03-22T21:15:37.010Z,77.57
2019-03-22T21:18:09.560Z,77.83
2019-03-22T21:20:41.976Z,77.86
2019-03-22T21:23:14.239Z,78.15
2019-03-22T21:25:46.565Z,77.93
2019-03-22T21:28:18.901Z,78.55
2019-03-22T21:30:51.337Z,78.29
2019-03-22T21:33:23.771Z,79.04
2019-03-22T21:35:56.113Z,79.37
2019-03-22T21:38:28.597Z,80.01
2019-03-22T21:41:00.943Z,80.16
2019-03-22T21:43:33.440Z,80.05
2019-03-22T21:46:05.853Z,81.09
2019-03-22T21:48:38.142Z,81.33
2019-03-22T21:51:10.286Z,81.67
2019-03-22T21:53:42.545Z,81.45
2019-03-22T21:56:14.864Z,81.37
2019-03-22T21:58:47.129Z,81.86
2019-03-22T22:01:20.639Z,82.29
2019-03-22T22:03:53.056Z,83.38
2019-03-22T22:06:25.309Z,83.31
2019-03-22T22:08:57.578Z,83.44
2019-03-22T22:11:29.696Z,83.35
2019-03-22T22:14:02.661Z,83.58
2019-03-22T22:16:35.021Z,83.45
2019-03-22T22:19:07.518Z,84.05
2019-03-22T22:21:39.882Z,84.63
2019-03-22T22:24:12.193Z,84.30
2019-03-22T22:26:44.554Z,84.45
2019-03-22T22:29:17.188Z,85.09
2019-03-22T22:31:49.452Z,85.27
2019-03-22T22:34:22.170Z,84.85
2019-03-22T22:36:54.557Z,85.72
2019-03-22T22:39:27.074Z,86.28
2019-03-22T22:42:01.726Z,86.81
2019-03-22T22:44:34.515Z,87.01
2019-03-22T22:47:09.046Z,86.79
2019-03-22T22:49:41.550Z,87.20
2019-03-22T22:52:13.967Z,87.04
2019-03-22T22:54:46.341Z,87.72
2019-03-22T22:57:18.664Z,87.71
2019-03-22T22:59:51.361Z,87.87
2019-03-22T23:02:23.703Z,87.83
2019-03-22T23:04:56.593Z,87.97
2019-03-22T23:07:30.149Z,88.04
2019-03-22T23:10:02.637Z,88.43
2019-03-22T23:12:35.166Z,88.37
2019-03-22T23:15:07.995Z,88.68
2019-03-22T23:17:40.428Z,88.97
2019-03-22T23:20:13.135Z,89.12
2019-03-22T23:22:45.644Z,89.66
2019-03-22T23:25:17.838Z,88.72
2019-03-22T23:27:50.316Z,89.27
2019-03-22T23:30:25.344Z,89.99
2019-03-22T23:32:57.646Z,90.24
2019-03-22T23:35:30.275Z,89.56
2019-03-22T23:38:02.651Z,88.84
2019-03-22T23:40:35.036Z,88.67
2019-03-22T23:43:07.609Z,88.99
2019-03-22T23:45:40.067Z,89.19
2019-03-22T23:48:12.497Z,89.39
2019-03-22T23:50:44.867Z,88.80
2019-03-22T23:53:17.215Z,88.85
2019-03-22T23:55:49.484Z,88.88
2019-03-22T23:58:21.927Z,88.55
